Time;durP1;ratioP1;P1;durP2;ratioP2;P2;SDS_P1;SDS_P2;PMS_P1;PMS_P2;Temp;Humidity;BMP_temperature;BMP_pressure;BME280_temperature;BME280_humidity;BME280_pressure;Samples;Min_cycle;Max_cycle;Signal;HPM_P1;HPM_P2
2022/12/20 00:01:52;;;;;;;4.95;3.42;;;8.30;99.90;;;;;;4963751;28;20093;-75
2022/12/20 00:04:17;;;;;;;9.35;3.78;;;8.30;99.90;;;;;;4967026;28;20097;-75
2022/12/20 00:06:43;;;;;;;6.10;4.25;;;8.30;99.90;;;;;;4982106;28;20497;-75
2022/12/20 00:09:10;;;;;;;4.13;3.38;;;8.30;99.90;;;;;;4982793;28;20497;-75
2022/12/20 00:11:38;;;;;;;6.25;4.40;;;8.30;99.90;;;;;;4983219;28;20050;-75
2022/12/20 00:14:04;;;;;;;6.85;3.42;;;8.40;99.90;;;;;;4972513;28;20047;-75
2022/12/20 00:16:30;;;;;;;4.38;3.03;;;8.30;99.90;;;;;;4964060;28;20062;-76
2022/12/20 00:18:58;;;;;;;11.57;4.15;;;8.40;99.90;;;;;;4962880;28;20034;-75
2022/12/20 00:21:24;;;;;;;8.27;3.25;;;8.30;99.90;;;;;;4963562;28;20061;-75
2022/12/20 00:23:54;;;;;;;4.53;3.60;;;8.30;99.90;;;;;;4971686;28;20251;-75
2022/12/20 00:26:23;;;;;;;3.45;3.15;;;8.40;99.90;;;;;;4978682;28;20038;-75
2022/12/20 00:28:49;;;;;;;4.40;3.17;;;8.40;99.90;;;;;;4963433;28;20035;-75
2022/12/20 00:31:18;;;;;;;4.03;3.67;;;8.40;99.90;;;;;;4964111;28;20046;-75
2022/12/20 00:33:46;;;;;;;5.78;4.20;;;8.40;99.90;;;;;;4970245;28;20049;-75
2022/12/20 00:36:12;;;;;;;5.93;4.18;;;8.40;99.90;;;;;;4982925;28;20176;-75
2022/12/20 00:38:38;;;;;;;4.35;3.53;;;8.40;99.90;;;;;;4983190;28;20742;-75
2022/12/20 00:41:04;;;;;;;4.75;3.08;;;8.40;99.90;;;;;;4965228;28;20046;-75
2022/12/20 00:43:30;;;;;;;4.30;2.78;;;8.40;99.90;;;;;;4981398;28;20581;-75
2022/12/20 00:45:56;;;;;;;3.97;3.50;;;8.40;99.90;;;;;;4982753;28;20053;-75
2022/12/20 00:48:23;;;;;;;5.75;3.03;;;8.40;99.90;;;;;;4982102;28;20073;-75
2022/12/20 00:50:49;;;;;;;9.80;4.32;;;8.40;99.90;;;;;;4983122;28;20086;-77
2022/12/20 00:53:15;;;;;;;4.38;2.50;;;8.40;99.90;;;;;;4982726;28;20046;-76
2022/12/20 00:55:42;;;;;;;4.80;3.63;;;8.40;99.90;;;;;;4982855;28;20378;-76
2022/12/20 00:58:08;;;;;;;5.85;3.67;;;8.40;99.90;;;;;;4982864;28;20404;-76
2022/12/20 01:00:34;;;;;;;4.25;3.10;;;8.40;99.90;;;;;;4983262;28;20046;-76
2022/12/20 01:02:59;;;;;;;3.83;2.35;;;8.40;99.90;;;;;;4981322;28;20054;-76
2022/12/20 01:05:25;;;;;;;5.65;2.35;;;8.40;99.90;;;;;;4963314;28;20077;-76
2022/12/20 01:07:50;;;;;;;4.18;2.90;;;8.40;99.90;;;;;;4963189;28;20486;-76
2022/12/20 01:10:17;;;;;;;3.55;2.85;;;8.40;99.90;;;;;;4963777;28;20043;-76
2022/12/20 01:12:43;;;;;;;5.68;3.40;;;8.40;99.90;;;;;;4965670;28;20133;-76
2022/12/20 01:15:09;;;;;;;4.57;3.05;;;8.40;99.90;;;;;;4983643;28;20486;-76
2022/12/20 01:17:35;;;;;;;3.03;2.78;;;8.40;99.90;;;;;;4985223;28;20050;-76
2022/12/20 01:20:01;;;;;;;3.67;2.60;;;8.40;99.90;;;;;;4986177;28;20053;-76
2022/12/20 01:22:27;;;;;;;4.18;3.28;;;8.40;99.90;;;;;;4985925;28;20050;-76
2022/12/20 01:24:52;;;;;;;7.78;3.88;;;8.40;99.90;;;;;;4971133;28;20043;-76
2022/12/20 01:27:18;;;;;;;3.83;3.20;;;8.40;99.90;;;;;;4979746;28;20097;-76
2022/12/20 01:29:43;;;;;;;4.65;3.03;;;8.40;99.90;;;;;;4986093;28;20101;-76
2022/12/20 01:32:09;;;;;;;4.80;3.35;;;8.40;99.90;;;;;;4984884;28;20046;-76
2022/12/20 01:34:35;;;;;;;7.63;3.70;;;8.40;99.90;;;;;;4985227;28;20042;-76
2022/12/20 01:37:00;;;;;;;2.97;2.67;;;8.40;99.90;;;;;;4985453;28;20053;-76
2022/12/20 01:39:26;;;;;;;3.30;2.78;;;8.40;99.90;;;;;;4986013;28;20509;-76
2022/12/20 01:41:51;;;;;;;5.57;4.65;;;8.40;99.90;;;;;;4984620;28;20073;-76
2022/12/20 01:44:17;;;;;;;8.05;3.63;;;8.40;99.90;;;;;;4976415;28;20061;-76
2022/12/20 01:46:44;;;;;;;4.93;3.20;;;8.40;99.90;;;;;;4966492;28;20046;-76
2022/12/20 01:49:19;;;;;;;7.70;3.63;;;8.40;99.90;;;;;;4965096;28;20094;-76
2022/12/20 01:51:50;;;;;;;3.80;3.50;;;8.40;99.90;;;;;;4966538;28;20047;-76
2022/12/20 01:54:21;;;;;;;2.38;2.17;;;8.40;99.90;;;;;;4975618;28;20050;-76
2022/12/20 01:56:52;;;;;;;5.93;3.10;;;8.40;99.90;;;;;;4985510;28;20031;-76
2022/12/20 01:59:18;;;;;;;5.72;3.63;;;8.40;99.90;;;;;;4986007;28;20058;-76
2022/12/20 02:01:44;;;;;;;5.97;3.65;;;8.40;99.90;;;;;;4985886;28;20050;-76
2022/12/20 02:04:11;;;;;;;5.65;3.85;;;8.40;99.90;;;;;;5034119;23;20078;-76
2022/12/20 02:06:36;;;;;;;3.53;2.58;;;8.40;99.90;;;;;;4957432;28;20770;-76
2022/12/20 02:09:04;;;;;;;3.30;2.80;;;8.40;99.90;;;;;;4946046;28;20043;-76
2022/12/20 02:11:51;;;;;;;2.78;2.50;;;8.40;99.90;;;;;;4946161;28;20043;-76
2022/12/20 02:14:42;;;;;;;5.25;3.08;;;8.40;99.90;;;;;;4946905;28;20043;-76
2022/12/20 02:17:27;;;;;;;9.25;2.47;;;8.50;99.90;;;;;;4951047;28;20824;-76
2022/12/20 02:20:08;;;;;;;3.78;2.92;;;8.40;99.90;;;;;;4964698;28;20138;-76
2022/12/20 02:22:39;;;;;;;4.80;2.65;;;8.40;99.90;;;;;;4965330;28;20122;-76
2022/12/20 02:25:23;;;;;;;3.35;2.88;;;8.40;99.90;;;;;;4947043;28;20518;-76
2022/12/20 02:27:59;;;;;;;4.53;2.92;;;8.40;99.90;;;;;;4945020;29;20113;-76
2022/12/20 02:30:31;;;;;;;5.57;3.65;;;8.40;99.90;;;;;;4946398;28;20044;-76
2022/12/20 02:33:09;;;;;;;4.30;3.90;;;8.40;99.90;;;;;;4945902;28;20051;-76
2022/12/20 02:35:36;;;;;;;2.40;2.10;;;8.40;99.90;;;;;;4965324;28;20038;-76
2022/12/20 02:38:28;;;;;;;5.32;3.33;;;8.40;99.90;;;;;;4964973;28;20042;-76
2022/12/20 02:41:03;;;;;;;5.78;3.60;;;8.40;99.90;;;;;;4965035;28;20049;-76
2022/12/20 02:46:18;;;;;;;3.47;2.58;;;8.30;99.90;;;;;;4963922;28;20525;-76
2022/12/20 02:48:46;;;;;;;4.57;3.08;;;8.30;99.90;;;;;;4956767;28;20070;-77
2022/12/20 02:51:14;;;;;;;4.13;3.10;;;8.30;99.90;;;;;;4964681;28;20050;-76
2022/12/20 02:53:41;;;;;;;4.90;3.15;;;8.30;99.90;;;;;;4964825;28;20043;-76
2022/12/20 02:56:18;;;;;;;5.10;2.97;;;8.30;99.90;;;;;;4963770;28;20081;-76
2022/12/20 02:59:17;;;;;;;9.10;3.72;;;8.30;99.90;;;;;;4945089;28;20561;-76
2022/12/20 03:01:53;;;;;;;4.63;2.45;;;8.30;99.90;;;;;;4940761;28;20134;-76
2022/12/20 03:04:23;;;;;;;5.28;3.47;;;8.30;99.90;;;;;;4944231;29;20067;-76
2022/12/20 03:07:01;;;;;;;4.15;2.75;;;8.30;99.90;;;;;;4949264;28;20149;-76
2022/12/20 03:09:27;;;;;;;3.80;3.50;;;8.20;99.90;;;;;;4946004;28;20122;-76
2022/12/20 03:11:54;;;;;;;6.38;3.20;;;8.20;99.90;;;;;;4944875;28;20051;-76
2022/12/20 03:14:20;;;;;;;4.03;3.60;;;8.20;99.90;;;;;;4945380;28;20062;-76
2022/12/20 03:16:46;;;;;;;6.38;3.97;;;8.20;99.90;;;;;;4947113;28;20051;-76
2022/12/20 03:19:11;;;;;;;3.30;3.00;;;8.20;99.90;;;;;;4964579;28;20038;-76
2022/12/20 03:21:37;;;;;;;5.60;3.03;;;8.20;99.90;;;;;;4964275;28;20050;-76
2022/12/20 03:24:03;;;;;;;5.53;3.75;;;8.30;99.90;;;;;;4964496;28;20070;-76
2022/12/20 03:26:28;;;;;;;4.50;3.47;;;8.30;99.90;;;;;;4958796;28;20063;-76
2022/12/20 03:28:54;;;;;;;11.20;4.70;;;8.30;99.90;;;;;;4963071;28;20138;-76
2022/12/20 03:31:19;;;;;;;8.70;3.90;;;8.20;99.90;;;;;;4964283;28;20533;-76
2022/12/20 03:33:45;;;;;;;4.45;3.10;;;8.20;99.90;;;;;;4963909;28;20053;-77
2022/12/20 03:36:11;;;;;;;7.03;4.20;;;8.30;99.90;;;;;;4963770;28;20126;-76
2022/12/20 03:38:36;;;;;;;7.72;4.30;;;8.20;99.90;;;;;;4947844;28;20043;-76
2022/12/20 03:41:02;;;;;;;2.70;2.50;;;8.20;99.90;;;;;;4944774;28;20051;-76
2022/12/20 03:43:27;;;;;;;4.45;3.05;;;8.20;99.90;;;;;;4947756;28;20038;-77
2022/12/20 03:45:53;;;;;;;5.70;3.55;;;8.20;99.90;;;;;;4963966;28;20042;-76
2022/12/20 03:48:19;;;;;;;4.43;3.13;;;8.20;99.90;;;;;;4963713;28;20259;-76
2022/12/20 03:50:44;;;;;;;5.40;3.13;;;8.20;99.90;;;;;;4964326;28;20134;-76
2022/12/20 03:53:10;;;;;;;6.75;3.47;;;8.20;99.90;;;;;;4963341;28;20098;-76
2022/12/20 03:55:35;;;;;;;4.97;4.00;;;8.20;99.90;;;;;;4945047;28;20047;-76
2022/12/20 03:58:01;;;;;;;5.40;3.58;;;8.20;99.90;;;;;;4944423;28;20657;-76
2022/12/20 04:00:27;;;;;;;5.15;3.83;;;8.20;99.90;;;;;;4943779;29;20251;-76
2022/12/20 04:02:53;;;;;;;8.07;4.30;;;8.20;99.90;;;;;;4942470;29;20050;-76
2022/12/20 04:05:18;;;;;;;5.82;3.40;;;8.20;99.90;;;;;;4960606;28;20405;-76
2022/12/20 04:07:44;;;;;;;5.90;3.03;;;8.20;99.90;;;;;;4964476;28;20397;-76
2022/12/20 04:10:10;;;;;;;7.15;3.50;;;8.20;99.90;;;;;;4962900;28;20046;-77
2022/12/20 04:12:36;;;;;;;3.85;3.53;;;8.20;99.90;;;;;;4963391;28;20046;-76
2022/12/20 04:15:01;;;;;;;5.47;3.38;;;8.20;99.90;;;;;;4948909;28;20043;-76
2022/12/20 04:17:27;;;;;;;7.05;4.18;;;8.20;99.90;;;;;;4943864;28;20741;-76
2022/12/20 04:19:52;;;;;;;4.82;4.15;;;8.20;99.90;;;;;;4944391;28;20071;-76
2022/12/20 04:22:18;;;;;;;5.18;3.90;;;8.30;99.90;;;;;;4944071;29;20639;-76
2022/12/20 04:24:44;;;;;;;4.28;3.53;;;8.30;99.90;;;;;;4939889;28;20083;-76
2022/12/20 04:27:09;;;;;;;4.95;2.95;;;8.30;99.90;;;;;;4952475;28;20811;-76
2022/12/20 04:29:35;;;;;;;4.05;3.65;;;8.30;99.90;;;;;;4944557;28;20051;-76
2022/12/20 04:32:00;;;;;;;5.25;3.78;;;8.30;99.90;;;;;;4943446;28;20047;-77
2022/12/20 04:34:26;;;;;;;6.15;3.72;;;8.30;99.90;;;;;;4952935;28;20551;-76
2022/12/20 04:36:52;;;;;;;4.20;3.33;;;8.30;99.90;;;;;;4963738;28;20058;-76
2022/12/20 04:39:18;;;;;;;4.55;4.00;;;8.30;99.90;;;;;;4946545;28;20051;-76
2022/12/20 04:41:44;;;;;;;5.13;3.67;;;8.40;99.90;;;;;;4943853;29;20405;-76
2022/12/20 04:44:09;;;;;;;5.10;3.38;;;8.40;99.90;;;;;;4951517;28;20046;-76
2022/12/20 04:46:35;;;;;;;5.47;3.53;;;8.40;99.90;;;;;;4965047;28;20043;-76
2022/12/20 04:49:00;;;;;;;6.68;4.78;;;8.40;99.90;;;;;;4967341;28;20039;-76
2022/12/20 04:51:26;;;;;;;12.32;3.83;;;8.40;99.90;;;;;;4967601;28;20046;-76
2022/12/20 04:53:52;;;;;;;10.90;3.80;;;8.40;99.90;;;;;;4947456;28;20383;-76
2022/12/20 04:56:27;;;;;;;6.80;4.60;;;8.40;99.90;;;;;;4948342;28;20049;-76
2022/12/20 04:58:53;;;;;;;5.38;3.55;;;8.40;99.90;;;;;;4947189;28;20043;-76
2022/12/20 05:01:20;;;;;;;5.53;3.58;;;8.40;99.90;;;;;;4947368;28;20051;-77
2022/12/20 05:03:45;;;;;;;5.35;3.50;;;8.40;99.90;;;;;;4965050;28;20047;-76
2022/12/20 05:06:11;;;;;;;4.93;3.78;;;8.40;99.90;;;;;;4965151;28;20544;-76
2022/12/20 05:08:37;;;;;;;4.97;4.50;;;8.40;99.90;;;;;;4967463;28;20055;-76
2022/12/20 05:11:03;;;;;;;4.32;3.50;;;8.40;99.90;;;;;;4966359;28;20098;-76
2022/12/20 05:13:29;;;;;;;7.88;3.95;;;8.40;99.90;;;;;;4951979;28;20524;-76
2022/12/20 05:15:56;;;;;;;6.65;3.40;;;8.50;99.90;;;;;;4947506;28;20087;-76
2022/12/20 05:18:22;;;;;;;3.90;3.50;;;8.40;99.90;;;;;;4946524;28;20047;-76
2022/12/20 05:26:15;;;;;;;6.45;4.03;;;8.40;99.90;;;;;;4948077;28;20039;-76
2022/12/20 05:26:18;;;;;;;5.25;4.22;;;8.50;99.90;;;;;;4962696;28;20078;-76
2022/12/20 05:28:44;;;;;;;3.78;3.38;;;8.50;99.90;;;;;;4947129;28;20055;-76
2022/12/20 05:31:10;;;;;;;7.10;3.05;;;8.50;99.90;;;;;;4947328;28;20514;-76
2022/12/20 05:33:35;;;;;;;4.80;3.28;;;8.50;99.90;;;;;;4946248;28;20570;-76
2022/12/20 05:36:01;;;;;;;4.68;3.72;;;8.50;99.90;;;;;;4961354;28;20082;-76
2022/12/20 05:38:27;;;;;;;9.20;4.75;;;8.50;99.90;;;;;;4963059;28;20042;-76
2022/12/20 05:40:52;;;;;;;4.97;4.50;;;8.50;99.90;;;;;;4945837;28;20051;-79
2022/12/20 05:43:19;;;;;;;4.93;3.55;;;8.50;99.90;;;;;;4945274;29;20043;-76
2022/12/20 05:45:47;;;;;;;5.40;2.70;;;8.60;99.90;;;;;;4946708;28;20051;-76
2022/12/20 05:48:13;;;;;;;6.15;3.42;;;8.60;99.90;;;;;;4945727;28;20485;-76
2022/12/20 05:50:38;;;;;;;4.78;3.65;;;8.60;99.90;;;;;;4946097;29;20500;-76
2022/12/20 05:53:04;;;;;;;5.43;4.15;;;8.60;99.90;;;;;;4946357;28;20095;-76
2022/12/20 05:55:30;;;;;;;4.00;2.60;;;8.60;99.90;;;;;;4955859;28;20465;-76
2022/12/20 05:57:55;;;;;;;4.07;3.10;;;8.70;99.90;;;;;;4965189;28;20043;-76
2022/12/20 06:00:21;;;;;;;5.47;3.53;;;8.60;99.90;;;;;;4957323;28;20046;-79
2022/12/20 06:02:46;;;;;;;4.75;4.13;;;8.60;99.90;;;;;;4950288;28;20038;-74
2022/12/20 06:05:12;;;;;;;5.75;4.03;;;8.60;99.90;;;;;;4950326;28;20616;-75
2022/12/20 06:07:37;;;;;;;4.53;3.13;;;8.70;99.90;;;;;;4950052;28;20057;-74
2022/12/20 06:10:03;;;;;;;4.40;3.15;;;8.70;99.90;;;;;;4960210;28;20041;-76
2022/12/20 06:12:29;;;;;;;3.95;3.08;;;8.70;99.90;;;;;;4962739;28;20047;-77
2022/12/20 06:14:55;;;;;;;6.10;3.15;;;8.70;99.90;;;;;;4964169;28;20433;-78
2022/12/20 06:17:21;;;;;;;4.85;3.72;;;8.70;99.90;;;;;;4964066;28;20116;-79
2022/12/20 06:19:46;;;;;;;3.53;2.92;;;8.70;99.90;;;;;;4964551;28;20039;-77
2022/12/20 06:22:12;;;;;;;4.38;2.72;;;8.80;99.90;;;;;;4954805;28;20035;-80
2022/12/20 06:24:38;;;;;;;4.35;3.65;;;8.70;99.90;;;;;;4955721;28;20082;-79
2022/12/20 06:27:05;;;;;;;5.05;3.92;;;8.80;99.90;;;;;;4946444;28;20299;-77
2022/12/20 06:29:32;;;;;;;4.45;3.40;;;8.80;99.90;;;;;;4955138;28;20570;-77
2022/12/20 06:31:58;;;;;;;4.78;4.30;;;8.80;99.90;;;;;;4964935;28;20053;-78
2022/12/20 06:34:23;;;;;;;6.78;3.75;;;8.80;99.90;;;;;;4963538;28;20047;-79
2022/12/20 06:36:49;;;;;;;4.32;3.47;;;8.90;99.90;;;;;;4963491;28;20042;-79
2022/12/20 06:39:14;;;;;;;9.90;7.15;;;8.90;99.90;;;;;;4964712;28;20370;-78
2022/12/20 06:41:40;;;;;;;6.85;3.45;;;8.90;99.90;;;;;;4964104;28;20548;-78
2022/12/20 06:44:06;;;;;;;6.35;4.88;;;8.90;99.90;;;;;;4959032;28;20398;-78
2022/12/20 06:46:32;;;;;;;5.20;4.35;;;8.90;99.90;;;;;;4958288;28;20501;-78
2022/12/20 06:48:58;;;;;;;7.80;3.80;;;8.90;99.90;;;;;;4952729;28;20639;-78
2022/12/20 06:51:24;;;;;;;5.63;4.07;;;9.00;99.90;;;;;;4952486;28;20057;-78
2022/12/20 06:53:50;;;;;;;5.78;3.53;;;8.90;99.90;;;;;;4950035;28;20081;-78
2022/12/20 06:56:15;;;;;;;9.15;4.65;;;8.90;99.90;;;;;;4954562;28;20142;-79
2022/12/20 06:58:43;;;;;;;5.03;3.88;;;8.90;99.90;;;;;;4945115;28;20043;-80
2022/12/20 07:01:09;;;;;;;24.05;5.22;;;8.90;99.90;;;;;;4949728;28;20726;-82
2022/12/20 07:03:46;;;;;;;4.28;3.80;;;8.90;99.90;;;;;;4962037;28;20045;-84
2022/12/20 07:06:17;;;;;;;6.88;4.80;;;8.90;99.90;;;;;;4954902;28;20086;-79
2022/12/20 07:08:43;;;;;;;9.60;5.60;;;8.90;99.90;;;;;;4943126;28;20051;-79
2022/12/20 07:11:09;;;;;;;4.78;4.20;;;8.90;99.90;;;;;;4937330;28;20046;-79
2022/12/20 07:13:35;;;;;;;6.32;3.90;;;8.90;99.90;;;;;;4962597;28;20054;-80
2022/12/20 07:16:01;;;;;;;7.43;4.75;;;8.90;99.90;;;;;;4961196;28;20043;-79
2022/12/20 07:18:28;;;;;;;5.43;4.20;;;8.90;99.90;;;;;;4964055;28;20057;-80
2022/12/20 07:20:53;;;;;;;16.30;5.63;;;8.90;99.90;;;;;;4963574;28;20085;-80
2022/12/20 07:23:19;;;;;;;7.18;5.25;;;8.90;99.90;;;;;;4950815;28;20129;-81
2022/12/20 07:25:55;;;;;;;10.02;4.63;;;8.90;99.90;;;;;;4948770;28;20259;-80
2022/12/20 07:28:22;;;;;;;7.30;5.35;;;8.90;99.90;;;;;;4954455;28;20234;-79
2022/12/20 07:30:48;;;;;;;5.15;4.45;;;8.90;99.90;;;;;;4964749;28;20051;-80
2022/12/20 07:33:13;;;;;;;10.45;6.05;;;8.90;99.90;;;;;;4947948;28;20422;-80
2022/12/20 07:35:39;;;;;;;4.68;3.92;;;8.90;99.90;;;;;;4944617;28;20047;-79
2022/12/20 07:38:05;;;;;;;7.78;4.55;;;8.90;99.90;;;;;;4945596;28;20031;-80
2022/12/20 07:40:30;;;;;;;7.20;5.15;;;8.90;99.90;;;;;;4944398;28;20035;-80
2022/12/20 07:42:56;;;;;;;9.63;6.70;;;8.90;99.90;;;;;;4975326;28;20054;-80
2022/12/20 07:45:22;;;;;;;5.90;4.75;;;8.80;99.90;;;;;;4944519;28;20166;-80
2022/12/20 07:47:47;;;;;;;10.68;6.28;;;8.80;99.90;;;;;;4945033;28;20077;-80
2022/12/20 07:50:13;;;;;;;10.40;5.03;;;8.80;99.90;;;;;;4945822;28;20437;-80
2022/12/20 07:52:42;;;;;;;7.55;4.20;;;8.80;99.90;;;;;;4944595;28;20058;-79
2022/12/20 07:55:09;;;;;;;9.18;5.45;;;8.80;99.90;;;;;;4943589;28;20118;-80
2022/12/20 07:57:46;;;;;;;5.05;4.55;;;8.80;99.90;;;;;;4946606;28;20458;-80
2022/12/20 08:00:13;;;;;;;10.57;5.35;;;8.80;99.90;;;;;;4943288;28;20084;-80
2022/12/20 08:02:51;;;;;;;5.38;4.82;;;8.80;99.90;;;;;;4944526;28;20078;-79
2022/12/20 08:05:17;;;;;;;12.13;6.15;;;8.80;99.90;;;;;;4944027;28;20529;-80
2022/12/20 08:07:45;;;;;;;8.48;4.70;;;8.80;99.90;;;;;;4950119;28;20046;-79
2022/12/20 08:10:13;;;;;;;7.75;3.92;;;8.80;99.90;;;;;;4962784;28;20046;-80
2022/12/20 08:12:40;;;;;;;6.28;4.07;;;8.80;99.90;;;;;;4951548;28;20078;-81
2022/12/20 08:15:07;;;;;;;7.03;4.32;;;8.80;99.90;;;;;;4943821;28;20406;-80
2022/12/20 08:17:33;;;;;;;6.18;4.20;;;8.80;99.90;;;;;;4953152;28;20047;-79
2022/12/20 08:19:59;;;;;;;7.70;3.95;;;8.80;99.90;;;;;;4950882;28;20043;-79
2022/12/20 08:22:25;;;;;;;8.25;5.10;;;8.80;99.90;;;;;;4957481;28;20198;-80
2022/12/20 08:24:51;;;;;;;4.65;3.50;;;8.80;99.90;;;;;;4964487;28;20039;-80
2022/12/20 08:27:17;;;;;;;5.45;3.40;;;8.80;99.90;;;;;;4954159;28;20055;-80
2022/12/20 08:29:42;;;;;;;6.30;4.55;;;8.80;99.90;;;;;;4956003;28;20045;-80
2022/12/20 08:32:09;;;;;;;6.50;3.85;;;8.80;99.90;;;;;;4962721;28;20331;-80
2022/12/20 08:34:35;;;;;;;6.57;3.58;;;8.80;99.90;;;;;;4966653;28;20473;-80
2022/12/20 08:37:01;;;;;;;5.47;3.85;;;8.80;99.90;;;;;;4954735;28;20047;-79
2022/12/20 08:39:26;;;;;;;6.45;5.03;;;8.90;99.90;;;;;;4963532;28;20043;-79
2022/12/20 08:41:52;;;;;;;4.90;3.78;;;8.90;99.90;;;;;;4956690;28;20035;-80
2022/12/20 08:44:17;;;;;;;6.07;4.82;;;8.90;99.90;;;;;;4955962;28;20042;-81
2022/12/20 08:46:43;;;;;;;5.57;4.05;;;8.90;99.90;;;;;;4947471;28;20039;-80
2022/12/20 08:49:09;;;;;;;5.15;4.03;;;8.90;99.90;;;;;;4956637;28;20039;-79
2022/12/20 08:51:34;;;;;;;5.65;3.47;;;8.90;99.90;;;;;;4953211;28;20038;-79
2022/12/20 08:54:01;;;;;;;4.10;3.33;;;9.00;99.90;;;;;;4949308;28;20085;-79
2022/12/20 08:56:27;;;;;;;7.47;4.07;;;9.00;99.90;;;;;;4948474;28;20047;-79
2022/12/20 08:58:53;;;;;;;5.20;3.25;;;9.00;99.90;;;;;;4948536;28;20537;-80
2022/12/20 09:01:25;;;;;;;3.38;2.60;;;8.90;99.90;;;;;;4958208;28;20042;-81
2022/12/20 09:03:51;;;;;;;;;;;9.00;99.90;;;;;;4953528;28;20531;-78
2022/12/20 09:06:19;;;;;;;9.52;4.18;;;9.00;99.90;;;;;;4961188;28;19922;-78
2022/12/20 09:08:49;;;;;;;3.10;2.55;;;9.00;99.90;;;;;;4962102;28;20131;-82
2022/12/20 09:11:23;;;;;;;3.90;3.10;;;9.00;99.90;;;;;;4961270;28;20045;-80
2022/12/20 09:13:52;;;;;;;9.65;4.03;;;9.00;99.90;;;;;;4965857;28;20034;-81
2022/12/20 09:16:20;;;;;;;5.68;3.47;;;9.10;99.90;;;;;;4949218;28;20036;-82
2022/12/20 09:18:51;;;;;;;4.28;3.65;;;9.00;99.90;;;;;;4961058;28;20066;-86
2022/12/20 09:21:20;;;;;;;3.10;2.80;;;9.10;99.90;;;;;;4966101;28;20058;-83
2022/12/20 09:23:48;;;;;;;5.40;2.83;;;9.10;99.90;;;;;;4949253;28;20142;-85
2022/12/20 09:26:16;;;;;;;3.92;3.50;;;9.10;99.90;;;;;;4951187;28;20145;-82
2022/12/20 09:28:43;;;;;;;3.72;2.70;;;9.10;99.90;;;;;;4956236;28;20051;-77
2022/12/20 09:31:11;;;;;;;5.07;3.25;;;9.20;99.90;;;;;;4946546;28;20290;-78
2022/12/20 09:33:38;;;;;;;4.40;2.80;;;9.10;99.90;;;;;;4961555;28;20046;-78
2022/12/20 09:36:04;;;;;;;2.33;2.17;;;9.20;99.90;;;;;;4960349;28;20062;-78
2022/12/20 09:38:31;;;;;;;5.57;3.33;;;9.20;99.90;;;;;;4952394;28;20049;-77
2022/12/20 09:41:05;;;;;;;3.22;2.80;;;9.20;99.90;;;;;;4947886;28;20035;-89
2022/12/20 09:43:34;;;;;;;2.72;2.30;;;9.20;99.90;;;;;;4960043;28;20042;-87
2022/12/20 09:46:02;;;;;;;2.30;2.10;;;9.30;99.90;;;;;;4938510;28;20046;-79
2022/12/20 09:48:32;;;;;;;2.85;2.65;;;9.30;99.90;;;;;;4963310;28;20035;-78
2022/12/20 09:51:38;;;;;;;4.13;2.42;;;9.30;99.90;;;;;;4948227;28;20047;-78
2022/12/20 09:54:15;;;;;;;7.00;3.45;;;9.30;99.90;;;;;;4953400;28;20355;-78
2022/12/20 09:57:15;;;;;;;5.95;2.88;;;9.30;99.90;;;;;;4949223;28;20042;-78
2022/12/20 09:59:42;;;;;;;3.08;2.47;;;9.30;99.90;;;;;;4954196;28;20061;-78
2022/12/20 10:02:21;;;;;;;5.95;2.78;;;9.40;99.90;;;;;;4958790;28;20089;-78
2022/12/20 10:04:46;;;;;;;4.93;2.67;;;9.40;99.90;;;;;;4949264;28;20418;-78
2022/12/20 10:07:31;;;;;;;4.38;2.58;;;9.40;99.90;;;;;;4957526;28;20047;-78
2022/12/20 10:10:15;;;;;;;2.75;1.65;;;9.40;99.90;;;;;;4952978;28;20256;-78
2022/12/20 10:13:04;;;;;;;3.85;2.88;;;9.40;99.90;;;;;;4953374;28;20043;-78
2022/12/20 10:15:49;;;;;;;2.55;2.15;;;9.40;99.90;;;;;;4950037;28;20039;-78
2022/12/20 10:18:27;;;;;;;3.38;2.92;;;9.50;99.90;;;;;;4956944;28;20038;-77
2022/12/20 10:21:02;;;;;;;4.88;2.78;;;9.50;99.90;;;;;;4948594;28;20050;-77
2022/12/20 10:23:38;;;;;;;2.83;2.03;;;9.40;99.90;;;;;;4954107;28;20053;-78
2022/12/20 10:26:09;;;;;;;2.95;1.52;;;9.40;99.90;;;;;;4950973;28;20051;-78
2022/12/20 10:28:36;;;;;;;3.97;1.98;;;9.40;99.90;;;;;;4951110;28;20137;-77
2022/12/20 10:31:05;;;;;;;2.60;2.40;;;9.50;99.90;;;;;;4956001;28;20043;-77
2022/12/20 10:33:32;;;;;;;2.83;2.20;;;9.50;99.90;;;;;;4946646;28;20051;-77
2022/12/20 10:36:17;;;;;;;3.70;1.92;;;9.50;99.90;;;;;;4945433;28;20110;-77
2022/12/20 10:38:46;;;;;;;2.88;2.30;;;9.50;99.90;;;;;;4957204;28;20280;-76
2022/12/20 10:41:18;;;;;;;6.00;3.47;;;9.50;99.90;;;;;;4957706;28;20118;-77
2022/12/20 10:43:48;;;;;;;4.35;2.13;;;9.50;99.90;;;;;;4950932;28;20143;-75
2022/12/20 10:46:17;;;;;;;3.42;2.30;;;9.50;99.90;;;;;;4950713;28;20035;-78
2022/12/20 10:48:46;;;;;;;2.72;2.47;;;9.50;99.90;;;;;;4956100;28;20083;-77
2022/12/20 10:51:16;;;;;;;3.42;2.75;;;9.50;99.90;;;;;;4952687;28;20489;-77
2022/12/20 10:53:53;;;;;;;5.22;2.60;;;9.50;99.90;;;;;;4957066;28;20035;-78
2022/12/20 10:56:30;;;;;;;5.40;2.85;;;9.50;99.90;;;;;;4950716;28;20050;-78
2022/12/20 10:59:20;;;;;;;3.33;2.08;;;9.50;99.90;;;;;;4943244;28;20047;-78
2022/12/20 11:01:48;;;;;;;4.30;2.97;;;9.50;99.90;;;;;;4955444;28;20042;-78
2022/12/20 11:04:40;;;;;;;4.25;2.85;;;9.60;99.90;;;;;;4950279;28;20106;-78
2022/12/20 11:07:26;;;;;;;7.80;2.70;;;9.50;99.90;;;;;;4943258;28;20494;-78
2022/12/20 11:09:57;;;;;;;4.00;3.15;;;9.50;99.90;;;;;;4942705;29;20039;-78
2022/12/20 11:12:23;;;;;;;5.18;2.50;;;9.60;99.90;;;;;;4953721;28;20146;-78
2022/12/20 11:14:49;;;;;;;2.80;2.25;;;9.60;99.90;;;;;;4954317;28;20137;-78
2022/12/20 11:17:28;;;;;;;5.50;2.80;;;9.60;99.90;;;;;;4951099;28;20101;-78
2022/12/20 11:20:10;;;;;;;2.97;2.67;;;9.60;99.90;;;;;;4953094;28;20513;-78
2022/12/20 11:22:50;;;;;;;7.32;3.58;;;9.50;99.90;;;;;;4962819;28;20039;-78
2022/12/20 11:25:23;;;;;;;6.07;3.65;;;9.50;99.90;;;;;;4958507;28;20113;-78
2022/12/20 11:28:11;;;;;;;5.97;2.80;;;9.50;99.90;;;;;;4946621;28;20049;-77
2022/12/20 11:30:55;;;;;;;4.93;2.25;;;9.50;99.90;;;;;;4960097;28;20400;-78
2022/12/20 11:33:45;;;;;;;2.88;2.38;;;9.50;99.90;;;;;;4944203;28;20047;-78
2022/12/20 11:36:29;;;;;;;6.68;3.22;;;9.50;99.90;;;;;;4946085;28;20055;-78
2022/12/20 11:39:04;;;;;;;4.07;2.17;;;9.50;99.90;;;;;;4954315;28;20109;-77
2022/12/20 11:41:50;;;;;;;6.32;2.80;;;9.40;99.90;;;;;;4949878;28;20361;-78
2022/12/20 11:44:31;;;;;;;4.50;2.88;;;9.40;99.90;;;;;;4954335;28;20049;-78
2022/12/20 11:47:38;;;;;;;6.82;4.05;;;9.40;99.90;;;;;;4948887;28;20046;-78
2022/12/20 11:50:18;;;;;;;4.80;3.42;;;9.40;99.90;;;;;;4956786;28;20346;-78
2022/12/20 11:52:53;;;;;;;3.05;2.78;;;9.40;99.90;;;;;;4949231;28;20058;-77
2022/12/20 11:55:25;;;;;;;5.38;3.28;;;9.40;99.90;;;;;;4962830;28;20167;-83
2022/12/20 11:58:20;;;;;;;4.68;3.42;;;9.40;99.90;;;;;;4950612;28;20101;-79
2022/12/20 12:00:57;;;;;;;4.78;4.35;;;9.40;99.90;;;;;;4937927;28;20624;-82
2022/12/20 12:03:32;;;;;;;6.95;4.28;;;9.40;99.90;;;;;;4954810;28;20595;-80
2022/12/20 12:06:10;;;;;;;5.93;3.88;;;9.40;99.90;;;;;;4960430;28;20061;-82
2022/12/20 12:09:04;;;;;;;3.97;2.63;;;9.30;99.90;;;;;;4944596;28;20130;-79
2022/12/20 12:11:34;;;;;;;5.95;3.03;;;9.40;99.90;;;;;;4952144;28;20505;-83
2022/12/20 12:14:02;;;;;;;6.03;4.47;;;9.30;99.90;;;;;;4956415;28;20034;-80
2022/12/20 12:16:34;;;;;;;10.98;3.97;;;9.30;99.90;;;;;;4949645;28;21001;-83
2022/12/20 12:19:02;;;;;;;4.28;3.65;;;9.40;99.90;;;;;;4958779;28;20441;-82
2022/12/20 12:22:00;;;;;;;4.35;3.70;;;9.30;99.90;;;;;;4951549;28;20042;-81
2022/12/20 12:24:33;;;;;;;7.68;5.40;;;9.30;99.90;;;;;;4961692;28;20511;-83
2022/12/20 12:26:59;;;;;;;5.30;4.13;;;9.30;99.90;;;;;;4950963;28;20089;-81
2022/12/20 12:29:27;;;;;;;6.90;4.68;;;9.30;99.90;;;;;;4948995;28;20055;-82
2022/12/20 12:32:11;;;;;;;9.93;5.45;;;9.30;99.90;;;;;;4944099;28;20047;-82
2022/12/20 12:35:17;;;;;;;5.63;4.80;;;9.30;99.90;;;;;;4949663;28;20047;-78
2022/12/20 12:38:03;;;;;;;6.25;5.50;;;9.30;99.90;;;;;;4933621;28;20043;-83
2022/12/20 12:40:34;;;;;;;7.40;5.43;;;9.30;99.90;;;;;;4960216;28;20054;-81
2022/12/20 12:43:21;;;;;;;6.05;5.05;;;9.40;99.90;;;;;;4960337;28;20043;-82
2022/12/20 12:45:58;;;;;;;5.38;4.32;;;9.30;99.90;;;;;;4944348;28;20081;-80
2022/12/20 12:48:51;;;;;;;7.03;5.68;;;9.30;99.90;;;;;;4953922;28;20047;-78
2022/12/20 12:51:36;;;;;;;7.05;4.57;;;9.30;99.90;;;;;;4962235;28;20218;-78
2022/12/20 12:54:08;;;;;;;6.57;4.78;;;9.30;99.90;;;;;;4959537;28;20078;-81
2022/12/20 12:56:41;;;;;;;5.22;4.35;;;9.30;99.90;;;;;;4952148;28;20051;-77
2022/12/20 12:59:08;;;;;;;5.47;4.45;;;9.30;99.90;;;;;;4960122;28;20042;-78
2022/12/20 13:01:47;;;;;;;8.75;5.07;;;9.30;99.90;;;;;;4950643;28;20549;-77
2022/12/20 13:04:18;;;;;;;7.35;5.55;;;9.30;99.90;;;;;;4942020;28;20475;-77
2022/12/20 13:06:47;;;;;;;7.97;5.22;;;9.30;99.90;;;;;;4943819;28;20043;-77
2022/12/20 13:09:24;;;;;;;5.47;4.70;;;9.30;99.90;;;;;;4955018;28;20085;-77
2022/12/20 13:11:55;;;;;;;9.65;4.97;;;9.30;99.90;;;;;;4960970;28;20497;-77
2022/12/20 13:14:24;;;;;;;7.30;5.93;;;9.30;99.90;;;;;;4958637;28;20044;-77
2022/12/20 13:17:01;;;;;;;6.20;5.13;;;9.20;99.90;;;;;;4945129;28;20054;-77
2022/12/20 13:19:27;;;;;;;7.70;5.72;;;9.20;99.90;;;;;;4953404;28;20043;-77